createdAt,value
2018-12-30T00:00:52.295Z,1018.36
2018-12-30T00:01:52.313Z,1018.28
2018-12-30T00:02:52.338Z,1018.48
2018-12-30T00:03:52.363Z,1018.44
2018-12-30T00:04:52.386Z,1018.48
2018-12-30T00:05:52.411Z,1018.51
2018-12-30T00:06:52.437Z,1018.45
2018-12-30T00:07:52.461Z,1018.44
2018-12-30T00:08:52.486Z,1018.53
2018-12-30T00:09:52.509Z,1018.57
2018-12-30T00:10:52.542Z,1018.51
2018-12-30T00:11:52.559Z,1018.56
2018-12-30T00:12:52.584Z,1018.58
2018-12-30T00:13:52.608Z,1018.59
2018-12-30T00:14:52.630Z,1018.62
2018-12-30T00:15:52.662Z,1018.54
2018-12-30T00:16:52.681Z,1018.62
2018-12-30T00:17:52.703Z,1018.61
2018-12-30T00:18:52.726Z,1018.67
2018-12-30T00:19:52.755Z,1018.70
2018-12-30T00:20:52.778Z,1018.73
2018-12-30T00:21:52.808Z,1018.83
2018-12-30T00:22:52.832Z,1018.81
2018-12-30T00:23:52.851Z,1018.81
2018-12-30T00:24:52.872Z,1018.89
2018-12-30T00:25:52.901Z,1018.87
2018-12-30T00:26:52.924Z,1018.91
2018-12-30T00:27:52.946Z,1018.90
2018-12-30T00:28:52.973Z,1018.80
2018-12-30T00:29:52.994Z,1018.83
2018-12-30T00:30:53.019Z,1018.86
2018-12-30T00:31:53.042Z,1018.88
2018-12-30T00:32:53.070Z,1018.87
2018-12-30T00:33:53.096Z,1018.89
2018-12-30T00:34:53.116Z,1019.07
2018-12-30T00:35:53.141Z,1018.91
2018-12-30T00:36:53.169Z,1019.01
2018-12-30T00:37:53.192Z,1018.96
2018-12-30T00:38:53.217Z,1018.97
2018-12-30T00:39:53.238Z,1019.17
2018-12-30T00:40:53.264Z,1019.07
2018-12-30T00:41:53.290Z,1019.08
2018-12-30T00:42:53.313Z,1019.05
2018-12-30T00:43:53.335Z,1019.22
2018-12-30T00:44:53.359Z,1019.16
2018-12-30T00:45:53.387Z,1019.20
2018-12-30T00:46:53.415Z,1019.14
2018-12-30T00:47:53.438Z,1019.15
2018-12-30T00:48:53.455Z,1019.34
2018-12-30T00:49:53.482Z,1019.23
2018-12-30T00:50:53.506Z,1019.27
2018-12-30T00:51:53.536Z,1019.20
2018-12-30T00:52:53.552Z,1019.24
2018-12-30T00:53:53.576Z,1019.28
2018-12-30T00:54:53.603Z,1019.34
2018-12-30T00:55:53.627Z,1019.41
2018-12-30T00:56:53.650Z,1019.53
2018-12-30T00:57:53.677Z,1019.45
2018-12-30T00:58:53.702Z,1019.40
2018-12-30T00:59:53.725Z,1019.47
2018-12-30T01:00:53.850Z,1019.49
2018-12-30T01:01:53.773Z,1019.44
2018-12-30T01:02:53.799Z,1019.55
2018-12-30T01:03:53.821Z,1019.52
2018-12-30T01:04:53.843Z,1019.56
2018-12-30T01:05:53.868Z,1019.46
2018-12-30T01:06:53.894Z,1019.52
2018-12-30T01:07:53.918Z,1019.47
2018-12-30T01:08:53.943Z,1019.60
2018-12-30T01:09:53.965Z,1019.61
2018-12-30T01:10:53.991Z,1019.62
2018-12-30T01:11:54.011Z,1019.70
2018-12-30T01:12:54.037Z,1019.72
2018-12-30T01:13:54.061Z,1019.69
2018-12-30T01:14:54.085Z,1019.77
2018-12-30T01:15:54.109Z,1019.78
2018-12-30T01:16:54.136Z,1019.83
2018-12-30T01:17:54.168Z,1019.79
2018-12-30T01:18:54.184Z,1019.80
2018-12-30T01:19:54.210Z,1019.84
2018-12-30T01:20:54.230Z,1019.94
2018-12-30T01:21:54.254Z,1019.87
2018-12-30T01:22:54.278Z,1019.92
2018-12-30T01:23:54.308Z,1019.92
2018-12-30T01:24:54.328Z,1020.02
2018-12-30T01:25:54.379Z,1020.01
2018-12-30T01:26:54.376Z,1020.01
2018-12-30T01:27:54.402Z,1020.12
2018-12-30T01:28:54.429Z,1020.08
2018-12-30T01:29:54.450Z,1020.04
2018-12-30T01:30:54.472Z,1020.11
2018-12-30T01:31:54.502Z,1020.15
2018-12-30T01:32:54.524Z,1020.10
2018-12-30T01:33:54.546Z,1020.13
2018-12-30T01:34:54.571Z,1020.17
2018-12-30T01:35:54.595Z,1020.18
2018-12-30T01:36:54.617Z,1020.25
2018-12-30T01:37:54.643Z,1020.19
2018-12-30T01:38:54.665Z,1020.18
2018-12-30T01:39:54.690Z,1020.20
2018-12-30T01:40:54.718Z,1020.17
2018-12-30T01:41:54.742Z,1020.15
2018-12-30T01:42:54.762Z,1020.18
2018-12-30T01:43:54.794Z,1020.29
2018-12-30T01:44:54.814Z,1020.28
2018-12-30T01:45:54.841Z,1020.25
2018-12-30T01:46:54.862Z,1020.29
2018-12-30T01:47:54.884Z,1020.33
2018-12-30T01:48:54.909Z,1020.20
2018-12-30T01:49:54.933Z,1020.26
2018-12-30T01:50:54.959Z,1020.32
2018-12-30T01:51:54.981Z,1020.33
2018-12-30T01:52:55.009Z,1020.29
2018-12-30T01:53:55.032Z,1020.29
2018-12-30T01:54:55.055Z,1020.38
2018-12-30T01:55:55.077Z,1020.47
2018-12-30T01:56:55.102Z,1020.46
2018-12-30T01:57:55.129Z,1020.42
2018-12-30T01:58:55.151Z,1020.46
2018-12-30T01:59:55.177Z,1020.41
2018-12-30T02:00:55.202Z,1020.46
2018-12-30T02:01:55.224Z,1020.43
2018-12-30T02:02:55.249Z,1020.38
2018-12-30T02:03:55.274Z,1020.47
2018-12-30T02:04:55.297Z,1020.56
2018-12-30T02:05:55.324Z,1020.56
2018-12-30T02:06:55.344Z,1020.57
2018-12-30T02:07:55.369Z,1020.63
2018-12-30T02:08:55.392Z,1020.62
2018-12-30T02:09:55.417Z,1020.69
2018-12-30T02:10:55.441Z,1020.69
2018-12-30T02:11:55.471Z,1020.77
2018-12-30T02:12:55.492Z,1020.72
2018-12-30T02:13:55.517Z,1020.80
2018-12-30T02:14:55.538Z,1020.81
2018-12-30T02:15:55.563Z,1020.82
2018-12-30T02:16:55.589Z,1020.96
2018-12-30T02:17:55.611Z,1021.00
2018-12-30T02:18:55.634Z,1021.02
2018-12-30T02:19:55.659Z,1021.04
2018-12-30T02:20:55.685Z,1021.08
2018-12-30T02:21:55.707Z,1021.10
2018-12-30T02:22:55.734Z,1021.13
2018-12-30T02:23:55.758Z,1021.11
2018-12-30T02:24:55.783Z,1021.16
2018-12-30T02:25:55.805Z,1021.25
2018-12-30T02:26:55.827Z,1021.22
2018-12-30T02:27:55.859Z,1021.18
2018-12-30T02:28:55.880Z,1021.21
2018-12-30T02:29:55.905Z,1021.23
2018-12-30T02:30:55.929Z,1021.26
2018-12-30T02:31:55.951Z,1021.27
2018-12-30T02:32:55.976Z,1021.26
2018-12-30T02:33:56.001Z,1021.31
2018-12-30T02:34:56.024Z,1021.34
2018-12-30T02:35:56.046Z,1021.29
2018-12-30T02:36:56.073Z,1021.37
2018-12-30T02:37:56.100Z,1021.37
2018-12-30T02:38:56.122Z,1021.26
2018-12-30T02:39:56.143Z,1021.37
2018-12-30T02:40:56.171Z,1021.25
2018-12-30T02:41:56.193Z,1021.26
2018-12-30T02:42:56.216Z,1021.27
2018-12-30T02:43:56.246Z,1021.34
2018-12-30T02:44:56.267Z,1021.30
2018-12-30T02:45:56.293Z,1021.30
2018-12-30T02:46:56.315Z,1021.29
2018-12-30T02:47:56.338Z,1021.29
2018-12-30T02:48:56.362Z,1021.32
2018-12-30T02:49:56.389Z,1021.43
2018-12-30T02:50:56.410Z,1021.42
2018-12-30T02:51:56.435Z,1021.47
2018-12-30T02:52:56.459Z,1021.48
2018-12-30T02:53:56.493Z,1021.45
2018-12-30T02:54:56.506Z,1021.51
2018-12-30T02:55:56.534Z,1021.52
2018-12-30T02:56:56.556Z,1021.48
2018-12-30T02:57:56.582Z,1021.53
2018-12-30T02:58:56.603Z,1021.52
2018-12-30T02:59:56.628Z,1021.48
2018-12-30T03:00:56.655Z,1021.49
2018-12-30T03:01:56.683Z,1021.55
2018-12-30T03:02:56.701Z,1021.51
2018-12-30T03:03:56.731Z,1021.54
2018-12-30T03:04:56.752Z,1021.53
2018-12-30T03:05:56.774Z,1021.58
2018-12-30T03:06:56.898Z,1021.52
2018-12-30T03:07:56.826Z,1021.54
2018-12-30T03:08:56.848Z,1021.55
2018-12-30T03:09:56.873Z,1021.59
2018-12-30T03:10:56.897Z,1021.67
2018-12-30T03:11:56.920Z,1021.68
2018-12-30T03:12:56.952Z,1021.62
2018-12-30T03:13:56.971Z,1021.61
2018-12-30T03:14:56.992Z,1021.74
2018-12-30T03:15:57.017Z,1021.70
2018-12-30T03:16:57.044Z,1021.69
2018-12-30T03:17:57.070Z,1021.73
2018-12-30T03:18:57.094Z,1021.74
2018-12-30T03:19:57.117Z,1021.71
2018-12-30T03:20:57.139Z,1021.68
2018-12-30T03:21:59.220Z,1021.78
2018-12-30T03:22:57.187Z,1021.70
2018-12-30T03:23:57.211Z,1021.76
2018-12-30T03:24:57.239Z,1021.78
2018-12-30T03:25:57.266Z,1021.85
2018-12-30T03:26:57.283Z,1021.83
2018-12-30T03:27:57.312Z,1021.84
2018-12-30T03:28:57.337Z,1021.78
2018-12-30T03:29:57.468Z,1021.83
2018-12-30T03:30:57.383Z,1021.87
2018-12-30T03:31:57.409Z,1021.88
2018-12-30T03:32:57.441Z,1021.83
2018-12-30T03:33:57.457Z,1021.80
2018-12-30T03:34:57.485Z,1021.87
2018-12-30T03:35:57.502Z,1021.89
2018-12-30T03:36:57.528Z,1021.83
2018-12-30T03:37:57.550Z,1021.86
2018-12-30T03:38:57.574Z,1021.95
2018-12-30T03:39:57.601Z,1021.95
2018-12-30T03:40:57.626Z,1021.92
2018-12-30T03:41:57.656Z,1021.87
2018-12-30T03:42:57.675Z,1021.92
2018-12-30T03:43:57.696Z,1021.95
2018-12-30T03:44:57.723Z,1021.91
2018-12-30T03:45:57.744Z,1021.99
2018-12-30T03:46:57.774Z,1021.99
2018-12-30T03:47:57.792Z,1021.95
2018-12-30T03:48:57.819Z,1021.92
2018-12-30T03:49:57.842Z,1021.97
2018-12-30T03:50:57.866Z,1021.97
2018-12-30T03:51:57.893Z,1021.93
2018-12-30T03:52:57.917Z,1021.94
2018-12-30T03:53:57.942Z,1022.06
2018-12-30T03:54:58.036Z,1021.97
2018-12-30T03:55:57.989Z,1022.11
2018-12-30T03:56:58.013Z,1022.05
2018-12-30T03:57:58.048Z,1022.03
2018-12-30T03:58:58.065Z,1022.12
2018-12-30T03:59:58.085Z,1022.11
2018-12-30T04:00:58.112Z,1022.13
2018-12-30T04:01:58.134Z,1022.18
2018-12-30T04:02:58.157Z,1022.13
2018-12-30T04:03:58.183Z,1022.24
2018-12-30T04:04:58.207Z,1022.24
2018-12-30T04:05:58.230Z,1022.24
2018-12-30T04:06:58.257Z,1022.25
2018-12-30T04:07:58.322Z,1022.27
2018-12-30T04:08:58.302Z,1022.25
2018-12-30T04:09:58.330Z,1022.21
2018-12-30T04:10:58.352Z,1022.28
2018-12-30T04:11:58.378Z,1022.26
2018-12-30T04:12:58.404Z,1022.35
2018-12-30T04:13:58.425Z,1022.31
2018-12-30T04:14:58.449Z,1022.28
2018-12-30T04:15:58.473Z,1022.35
2018-12-30T04:16:58.499Z,1022.36
2018-12-30T04:17:58.520Z,1022.37
2018-12-30T04:18:58.549Z,1022.37
2018-12-30T04:19:58.577Z,1022.37
2018-12-30T04:20:58.595Z,1022.41
2018-12-30T04:21:58.617Z,1022.42
2018-12-30T04:22:58.643Z,1022.47
2018-12-30T04:23:58.674Z,1022.44
2018-12-30T04:24:58.694Z,1022.49
2018-12-30T04:25:58.722Z,1022.49
2018-12-30T04:26:58.737Z,1022.48
2018-12-30T04:27:58.764Z,1022.50
2018-12-30T04:28:58.789Z,1022.58
2018-12-30T04:29:58.813Z,1022.55
2018-12-30T04:30:58.839Z,1022.60
2018-12-30T04:31:58.859Z,1022.56
2018-12-30T04:32:58.886Z,1022.58
2018-12-30T04:33:58.909Z,1022.59
2018-12-30T04:34:58.935Z,1022.58
2018-12-30T04:35:58.959Z,1022.59
2018-12-30T04:36:58.982Z,1022.61
2018-12-30T04:37:59.010Z,1022.67
2018-12-30T04:38:59.031Z,1022.65
2018-12-30T04:39:59.056Z,1022.62
2018-12-30T04:40:59.079Z,1022.64
2018-12-30T04:41:59.103Z,1022.58
2018-12-30T04:42:59.130Z,1022.71
2018-12-30T04:43:59.151Z,1022.70
2018-12-30T04:44:59.177Z,1022.75
2018-12-30T04:45:59.211Z,1022.74
2018-12-30T04:46:59.224Z,1022.78
2018-12-30T04:47:59.253Z,1022.75
2018-12-30T04:48:59.278Z,1022.80
2018-12-30T04:49:59.302Z,1022.81
2018-12-30T04:50:59.327Z,1022.75
2018-12-30T04:51:59.352Z,1022.79
2018-12-30T04:52:59.375Z,1022.81
2018-12-30T04:53:59.396Z,1022.82
2018-12-30T04:54:59.423Z,1022.90
2018-12-30T04:55:59.446Z,1022.94
2018-12-30T04:56:59.475Z,1022.96
2018-12-30T04:57:59.508Z,1022.92
2018-12-30T04:58:59.517Z,1022.92
2018-12-30T04:59:59.541Z,1022.94
2018-12-30T05:00:59.573Z,1022.91
2018-12-30T05:01:59.594Z,1022.97
2018-12-30T05:02:59.618Z,1022.98
2018-12-30T05:03:59.641Z,1022.95
2018-12-30T05:04:59.665Z,1022.99
2018-12-30T05:05:59.688Z,1022.99
2018-12-30T05:06:59.713Z,1023.08
2018-12-30T05:07:59.739Z,1023.02
2018-12-30T05:08:59.762Z,1022.99
2018-12-30T05:09:59.788Z,1023.00
2018-12-30T05:10:59.811Z,1022.97
2018-12-30T05:11:59.833Z,1022.98
2018-12-30T05:12:59.861Z,1022.93
2018-12-30T05:13:59.884Z,1022.87
2018-12-30T05:14:59.906Z,1022.85
2018-12-30T05:15:59.934Z,1022.88
2018-12-30T05:16:59.956Z,1022.85
2018-12-30T05:17:59.989Z,1022.86
2018-12-30T05:19:00.006Z,1022.79
2018-12-30T05:20:00.028Z,1022.69
2018-12-30T05:21:00.052Z,1022.69
2018-12-30T05:22:00.079Z,1022.70
2018-12-30T05:23:00.100Z,1022.80
2018-12-30T05:24:00.130Z,1022.79
2018-12-30T05:25:00.239Z,1022.81
2018-12-30T05:26:00.177Z,1022.80
2018-12-30T05:27:00.199Z,1022.82
2018-12-30T05:28:00.224Z,1022.85
2018-12-30T05:29:00.247Z,1022.92
2018-12-30T05:30:00.286Z,1022.82
2018-12-30T05:31:00.297Z,1022.80
2018-12-30T05:32:00.328Z,1022.92
2018-12-30T05:33:00.344Z,1023.08
2018-12-30T05:34:00.371Z,1023.07
2018-12-30T05:35:00.396Z,1023.08
2018-12-30T05:36:00.420Z,1023.17
2018-12-30T05:37:00.446Z,1023.19
2018-12-30T05:38:00.469Z,1023.23
2018-12-30T05:39:00.495Z,1023.22
2018-12-30T05:40:00.515Z,1023.30
2018-12-30T05:41:00.542Z,1023.29
2018-12-30T05:42:00.566Z,1023.36
2018-12-30T05:43:00.589Z,1023.39
2018-12-30T05:44:00.612Z,1023.29
2018-12-30T05:45:00.639Z,1023.37
2018-12-30T05:46:00.661Z,1023.35
2018-12-30T05:47:00.686Z,1023.36
2018-12-30T05:48:00.710Z,1023.46
2018-12-30T05:49:00.733Z,1023.48
2018-12-30T05:50:00.758Z,1023.46
2018-12-30T05:51:00.781Z,1023.46
2018-12-30T05:52:00.809Z,1023.41
2018-12-30T05:53:00.829Z,1023.38
2018-12-30T05:54:00.857Z,1023.40
2018-12-30T05:55:00.880Z,1023.40
2018-12-30T05:56:00.905Z,1023.60
2018-12-30T05:57:00.928Z,1023.57
2018-12-30T05:58:00.951Z,1023.41
2018-12-30T05:59:00.975Z,1023.25
2018-12-30T06:00:00.999Z,1023.25
2018-12-30T06:01:01.026Z,1023.41
2018-12-30T06:02:01.047Z,1023.46
2018-12-30T06:03:01.073Z,1023.43
2018-12-30T06:04:01.100Z,1023.43
2018-12-30T06:05:01.123Z,1023.49
2018-12-30T06:06:01.148Z,1023.49
2018-12-30T06:07:01.171Z,1023.39
2018-12-30T06:08:01.196Z,1023.45
2018-12-30T06:09:01.218Z,1023.49
2018-12-30T06:10:01.241Z,1023.58
2018-12-30T06:11:01.266Z,1023.54
2018-12-30T06:12:01.291Z,1023.54
2018-12-30T06:13:01.317Z,1023.57
2018-12-30T06:14:01.439Z,1023.51
2018-12-30T06:15:01.366Z,1023.56
2018-12-30T06:16:01.386Z,1023.60
2018-12-30T06:17:01.412Z,1023.69
2018-12-30T06:18:01.437Z,1023.70
2018-12-30T06:19:01.462Z,1023.64
2018-12-30T06:20:01.532Z,1023.64
2018-12-30T06:21:01.511Z,1023.83
2018-12-30T06:22:01.533Z,1023.84
2018-12-30T06:23:01.558Z,1023.75
2018-12-30T06:24:01.583Z,1023.62
2018-12-30T06:25:01.626Z,1023.73
2018-12-30T06:26:01.631Z,1023.84
2018-12-30T06:27:01.652Z,1023.78
2018-12-30T06:28:01.680Z,1023.76
2018-12-30T06:29:01.703Z,1023.77
2018-12-30T06:30:01.726Z,1023.83
2018-12-30T06:31:01.755Z,1023.86
2018-12-30T06:32:01.776Z,1023.81
2018-12-30T06:33:01.802Z,1023.81
2018-12-30T06:34:01.824Z,1023.80
2018-12-30T06:35:01.897Z,1023.91
2018-12-30T06:36:01.871Z,1023.89
2018-12-30T06:37:01.900Z,1023.95
2018-12-30T06:38:01.919Z,1023.93
2018-12-30T06:39:01.947Z,1023.93
2018-12-30T06:40:01.973Z,1023.93
2018-12-30T06:41:01.993Z,1024.00
2018-12-30T06:42:02.020Z,1023.97
2018-12-30T06:43:02.118Z,1023.96
2018-12-30T06:44:02.064Z,1024.01
2018-12-30T06:45:02.088Z,1024.09
2018-12-30T06:46:02.112Z,1024.15
2018-12-30T06:47:02.136Z,1024.13
2018-12-30T06:48:02.161Z,1024.11
2018-12-30T06:49:02.186Z,1024.16
2018-12-30T06:50:02.211Z,1024.23
2018-12-30T06:51:02.233Z,1024.19
2018-12-30T06:52:02.259Z,1024.14
2018-12-30T06:53:02.283Z,1024.20
2018-12-30T06:54:02.307Z,1024.16
2018-12-30T06:55:02.329Z,1024.10
2018-12-30T06:56:02.356Z,1024.22
2018-12-30T06:57:02.378Z,1024.29
2018-12-30T06:58:02.405Z,1024.21
2018-12-30T06:59:02.428Z,1024.16
2018-12-30T07:00:02.450Z,1024.13
2018-12-30T07:01:02.476Z,1024.18
2018-12-30T07:02:02.500Z,1024.18
2018-12-30T07:03:02.522Z,1024.20
2018-12-30T07:04:02.547Z,1024.16
2018-12-30T07:05:02.571Z,1024.15
2018-12-30T07:06:02.597Z,1024.10
2018-12-30T07:07:02.663Z,1024.12
2018-12-30T07:08:02.645Z,1024.12
2018-12-30T07:09:02.669Z,1024.09
2018-12-30T07:10:02.696Z,1024.16
2018-12-30T07:11:02.716Z,1024.23
2018-12-30T07:12:02.752Z,1024.19
2018-12-30T07:13:02.765Z,1024.16
2018-12-30T07:14:02.787Z,1024.13
2018-12-30T07:15:02.813Z,1024.12
2018-12-30T07:16:02.837Z,1024.19
2018-12-30T07:17:02.859Z,1024.27
2018-12-30T07:18:02.883Z,1024.24
2018-12-30T07:19:02.908Z,1024.23
2018-12-30T07:20:02.934Z,1024.24
2018-12-30T07:21:02.958Z,1024.23
2018-12-30T07:22:02.985Z,1024.22
2018-12-30T07:23:06.055Z,1024.22
2018-12-30T07:24:03.029Z,1024.19
2018-12-30T07:25:03.054Z,1024.18
2018-12-30T07:26:03.091Z,1024.21
2018-12-30T07:27:03.101Z,1024.18
2018-12-30T07:28:03.123Z,1024.12
2018-12-30T07:29:03.148Z,1024.16
2018-12-30T07:30:03.177Z,1024.15
2018-12-30T07:31:03.195Z,1024.12
2018-12-30T07:32:03.222Z,1024.12
2018-12-30T07:33:03.246Z,1024.12
2018-12-30T07:34:03.270Z,1024.13
2018-12-30T07:35:03.292Z,1024.12
2018-12-30T07:36:03.319Z,1024.08
2018-12-30T07:37:03.339Z,1024.11
2018-12-30T07:38:03.367Z,1024.06
2018-12-30T07:39:03.390Z,1024.02
2018-12-30T07:40:03.414Z,1024.04
2018-12-30T07:41:03.440Z,1024.06
2018-12-30T07:42:03.464Z,1024.08
2018-12-30T07:43:03.485Z,1024.12
2018-12-30T07:44:03.509Z,1024.15
2018-12-30T07:45:03.538Z,1024.21
2018-12-30T07:46:03.557Z,1024.19
2018-12-30T07:47:03.580Z,1024.27
2018-12-30T07:48:03.606Z,1024.30
2018-12-30T07:49:03.632Z,1024.30
2018-12-30T07:50:03.656Z,1024.36
2018-12-30T07:51:03.676Z,1024.36
2018-12-30T07:52:03.700Z,1024.39
2018-12-30T07:53:03.724Z,1024.40
2018-12-30T07:54:03.751Z,1024.42
2018-12-30T07:55:03.775Z,1024.40
2018-12-30T07:56:03.796Z,1024.36
2018-12-30T07:57:03.823Z,1024.39
2018-12-30T07:58:03.845Z,1024.38
2018-12-30T07:59:03.867Z,1024.38
2018-12-30T08:00:03.901Z,1024.36
2018-12-30T08:01:03.929Z,1024.35
2018-12-30T08:02:03.943Z,1024.40
2018-12-30T08:03:03.964Z,1024.41
2018-12-30T08:04:03.992Z,1024.41
2018-12-30T08:05:04.012Z,1024.43
2018-12-30T08:06:04.040Z,1024.43
2018-12-30T08:07:04.060Z,1024.39
2018-12-30T08:08:04.087Z,1024.39
2018-12-30T08:09:04.112Z,1024.35
2018-12-30T08:10:04.136Z,1024.39
2018-12-30T08:11:04.157Z,1024.37
2018-12-30T08:12:04.184Z,1024.37
2018-12-30T08:13:04.208Z,1024.45
2018-12-30T08:14:04.232Z,1024.47
2018-12-30T08:15:04.254Z,1024.41
2018-12-30T08:16:04.281Z,1024.50
2018-12-30T08:17:04.305Z,1024.45
2018-12-30T08:18:04.327Z,1024.37
2018-12-30T08:19:04.350Z,1024.40
2018-12-30T08:20:04.378Z,1024.41
2018-12-30T08:21:04.405Z,1024.37
2018-12-30T08:22:04.424Z,1024.38
2018-12-30T08:23:04.449Z,1024.41
2018-12-30T08:24:04.472Z,1024.41
2018-12-30T08:25:04.497Z,1024.41
2018-12-30T08:26:04.521Z,1024.42
2018-12-30T08:27:04.547Z,1024.40
2018-12-30T08:28:04.569Z,1024.47
2018-12-30T08:29:04.594Z,1024.44
2018-12-30T08:30:04.617Z,1024.46
2018-12-30T08:31:04.642Z,1024.46
2018-12-30T08:32:04.668Z,1024.52
2018-12-30T08:33:04.690Z,1024.54
2018-12-30T08:34:04.717Z,1024.56
2018-12-30T08:35:04.738Z,1024.54
2018-12-30T08:36:04.765Z,1024.55
2018-12-30T08:37:04.791Z,1024.47
2018-12-30T08:38:04.812Z,1024.48
2018-12-30T08:39:04.836Z,1024.52
2018-12-30T08:40:04.859Z,1024.51
2018-12-30T08:41:04.887Z,1024.52
2018-12-30T08:42:04.913Z,1024.54
2018-12-30T08:43:04.936Z,1024.53
2018-12-30T08:44:04.957Z,1024.52
2018-12-30T08:45:04.982Z,1024.57
2018-12-30T08:46:05.005Z,1024.55
2018-12-30T08:47:05.032Z,1024.61
2018-12-30T08:48:05.053Z,1024.57
2018-12-30T08:49:05.079Z,1024.57
2018-12-30T08:50:05.104Z,1024.62
2018-12-30T08:51:05.128Z,1024.61
2018-12-30T08:52:05.154Z,1024.61
2018-12-30T08:53:05.182Z,1024.57
2018-12-30T08:54:05.201Z,1024.65
2018-12-30T08:55:05.279Z,1024.61
2018-12-30T08:56:05.253Z,1024.60
2018-12-30T08:57:05.274Z,1024.57
2018-12-30T08:58:05.299Z,1024.58
2018-12-30T08:59:05.325Z,1024.54
2018-12-30T09:00:05.351Z,1024.54
2018-12-30T09:01:05.372Z,1024.57
2018-12-30T09:02:05.398Z,1024.55
2018-12-30T09:03:05.421Z,1024.57
2018-12-30T09:04:05.448Z,1024.55
2018-12-30T09:05:05.470Z,1024.58
2018-12-30T09:06:05.498Z,1024.56
2018-12-30T09:07:05.522Z,1024.52
2018-12-30T09:08:05.546Z,1024.50
2018-12-30T09:09:05.570Z,1024.51
2018-12-30T09:10:05.593Z,1024.47
2018-12-30T09:11:05.624Z,1024.39
2018-12-30T09:12:05.709Z,1024.32
2018-12-30T09:13:05.666Z,1024.39
2018-12-30T09:14:05.694Z,1024.43
2018-12-30T09:15:05.717Z,1024.41
2018-12-30T09:16:05.742Z,1024.41
2018-12-30T09:17:05.767Z,1024.52
2018-12-30T09:18:05.794Z,1024.53
2018-12-30T09:19:05.817Z,1024.55
2018-12-30T09:20:05.841Z,1024.61
2018-12-30T09:21:05.863Z,1024.57
2018-12-30T09:22:05.888Z,1024.50
2018-12-30T09:23:05.914Z,1024.47
2018-12-30T09:24:05.938Z,1024.44
2018-12-30T09:25:05.962Z,1024.47
2018-12-30T09:26:05.987Z,1024.49
2018-12-30T09:27:06.013Z,1024.51
2018-12-30T09:28:06.038Z,1024.63
2018-12-30T09:29:06.061Z,1024.62
2018-12-30T09:30:06.098Z,1024.67
2018-12-30T09:31:06.110Z,1024.68
2018-12-30T09:32:06.135Z,1024.64
2018-12-30T09:33:06.161Z,1024.64
2018-12-30T09:34:06.188Z,1024.58
2018-12-30T09:35:06.209Z,1024.63
2018-12-30T09:36:06.237Z,1024.66
2018-12-30T09:37:06.263Z,1024.62
2018-12-30T09:38:06.285Z,1024.61
2018-12-30T09:39:06.311Z,1024.64
2018-12-30T09:40:06.338Z,1024.66
2018-12-30T09:41:06.361Z,1024.71
2018-12-30T09:42:06.392Z,1024.71
2018-12-30T09:43:06.414Z,1024.75
2018-12-30T09:44:06.435Z,1024.77
2018-12-30T09:45:06.461Z,1024.76
2018-12-30T09:46:06.486Z,1024.79
2018-12-30T09:47:06.508Z,1024.81
2018-12-30T09:48:06.537Z,1024.80
2018-12-30T09:49:06.575Z,1024.79
2018-12-30T09:50:06.584Z,1024.80
2018-12-30T09:51:06.609Z,1024.79
2018-12-30T09:52:06.633Z,1024.85
2018-12-30T09:53:06.677Z,1024.89
2018-12-30T09:54:06.686Z,1024.92
2018-12-30T09:55:06.710Z,1024.95
2018-12-30T09:56:06.733Z,1024.98
2018-12-30T09:57:06.762Z,1025.03
2018-12-30T09:58:06.784Z,1025.06
2018-12-30T09:59:06.810Z,1025.05
2018-12-30T10:00:06.833Z,1025.03
2018-12-30T10:01:06.865Z,1025.01
2018-12-30T10:02:06.884Z,1024.96
2018-12-30T10:03:06.913Z,1024.99
2018-12-30T10:04:06.936Z,1024.93
2018-12-30T10:05:06.962Z,1024.97
2018-12-30T10:06:06.987Z,1024.97
2018-12-30T10:07:07.009Z,1024.93
2018-12-30T10:08:07.039Z,1024.99
2018-12-30T10:09:07.061Z,1024.94
2018-12-30T10:10:07.088Z,1024.92
2018-12-30T10:11:07.112Z,1024.93
2018-12-30T10:12:07.137Z,1024.89
2018-12-30T10:13:07.161Z,1024.92
2018-12-30T10:14:07.185Z,1024.94
2018-12-30T10:15:10.037Z,1024.90
2018-12-30T10:16:07.235Z,1024.90
2018-12-30T10:17:07.262Z,1024.92
2018-12-30T10:18:07.287Z,1025.01
2018-12-30T10:19:07.312Z,1024.96
2018-12-30T10:20:07.522Z,1024.96
2018-12-30T10:21:07.360Z,1024.93
2018-12-30T10:22:07.387Z,1024.98
2018-12-30T10:23:07.409Z,1024.93
2018-12-30T10:24:07.436Z,1024.98
2018-12-30T10:25:07.464Z,1024.98
2018-12-30T10:26:07.488Z,1024.99
2018-12-30T10:27:07.511Z,1024.96
2018-12-30T10:28:07.536Z,1024.95
2018-12-30T10:29:07.560Z,1024.88
2018-12-30T10:30:07.586Z,1024.89
2018-12-30T10:31:07.609Z,1024.90
2018-12-30T10:32:07.636Z,1024.85
2018-12-30T10:33:07.661Z,1024.84
2018-12-30T10:34:07.686Z,1024.89
2018-12-30T10:35:07.710Z,1024.87
2018-12-30T10:36:07.737Z,1024.89
2018-12-30T10:37:07.761Z,1024.87
2018-12-30T10:38:07.785Z,1024.83
2018-12-30T10:39:07.808Z,1024.81
2018-12-30T10:40:07.833Z,1024.81
2018-12-30T10:41:07.857Z,1024.85
2018-12-30T10:42:07.883Z,1024.88
2018-12-30T10:43:07.909Z,1024.88
2018-12-30T10:44:07.932Z,1024.92
2018-12-30T10:45:07.960Z,1024.92
2018-12-30T10:46:07.984Z,1024.99
2018-12-30T10:47:08.010Z,1024.96
2018-12-30T10:48:08.033Z,1024.94
2018-12-30T10:49:08.061Z,1024.91
2018-12-30T10:50:08.083Z,1024.81
2018-12-30T10:51:08.110Z,1024.80
2018-12-30T10:52:08.200Z,1024.77
2018-12-30T10:53:08.160Z,1024.73
2018-12-30T10:54:08.183Z,1024.77
2018-12-30T10:55:08.207Z,1024.74
2018-12-30T10:56:08.235Z,1024.76
2018-12-30T10:57:08.260Z,1024.78
2018-12-30T10:58:08.285Z,1024.78
2018-12-30T10:59:08.309Z,1024.81
2018-12-30T11:00:08.335Z,1024.83
2018-12-30T11:01:08.360Z,1024.89
2018-12-30T11:02:08.383Z,1024.89
2018-12-30T11:03:08.408Z,1024.90
2018-12-30T11:04:08.435Z,1024.92
2018-12-30T11:05:08.460Z,1024.88
2018-12-30T11:06:08.486Z,1024.89
2018-12-30T11:07:08.509Z,1024.84
2018-12-30T11:08:08.535Z,1024.88
2018-12-30T11:09:08.638Z,1024.82
2018-12-30T11:10:08.585Z,1024.81
2018-12-30T11:11:08.609Z,1024.80
2018-12-30T11:12:08.634Z,1024.80
2018-12-30T11:13:08.661Z,1024.77
2018-12-30T11:14:08.686Z,1024.82
2018-12-30T11:15:08.711Z,1024.80
2018-12-30T11:16:08.737Z,1024.79
2018-12-30T11:17:08.760Z,1024.78
2018-12-30T11:18:08.786Z,1024.76
2018-12-30T11:19:08.809Z,1024.81
2018-12-30T11:20:08.835Z,1024.88
2018-12-30T11:21:08.863Z,1024.88
2018-12-30T11:22:08.885Z,1024.79
2018-12-30T11:23:08.909Z,1024.84
2018-12-30T11:24:09.015Z,1024.80
2018-12-30T11:25:08.960Z,1024.80
2018-12-30T11:26:08.988Z,1024.76
2018-12-30T11:27:09.009Z,1024.78
2018-12-30T11:28:09.039Z,1024.78
2018-12-30T11:29:09.070Z,1024.77
2018-12-30T11:30:09.087Z,1024.69
2018-12-30T11:31:09.112Z,1024.75
2018-12-30T11:32:09.139Z,1024.70
2018-12-30T11:33:09.160Z,1024.74
2018-12-30T11:34:09.189Z,1024.75
2018-12-30T11:35:09.214Z,1024.71
2018-12-30T11:36:09.235Z,1024.71
2018-12-30T11:37:09.262Z,1024.71
2018-12-30T11:38:09.285Z,1024.66
2018-12-30T11:39:09.309Z,1024.68
2018-12-30T11:40:09.338Z,1024.65
2018-12-30T11:41:09.362Z,1024.65
2018-12-30T11:42:09.385Z,1024.68
2018-12-30T11:43:09.411Z,1024.63
2018-12-30T11:44:09.437Z,1024.65
2018-12-30T11:45:09.465Z,1024.63
2018-12-30T11:46:09.484Z,1024.60
2018-12-30T11:47:09.512Z,1024.64
2018-12-30T11:48:09.540Z,1024.57
2018-12-30T11:49:09.560Z,1024.58
2018-12-30T11:50:09.584Z,1024.51
2018-12-30T11:51:09.612Z,1024.48
2018-12-30T11:52:09.635Z,1024.50
2018-12-30T11:53:09.660Z,1024.46
2018-12-30T11:54:16.228Z,1024.50
2018-12-30T11:55:09.710Z,1024.44
2018-12-30T11:56:09.754Z,1024.50
2018-12-30T11:57:09.761Z,1024.44
2018-12-30T11:58:09.787Z,1024.41
2018-12-30T11:59:09.815Z,1024.44
2018-12-30T12:00:09.839Z,1024.39
2018-12-30T12:01:09.861Z,1024.42
2018-12-30T12:02:09.888Z,1024.43
2018-12-30T12:03:09.912Z,1024.43
2018-12-30T12:04:09.934Z,1024.40
2018-12-30T12:05:09.963Z,1024.43
2018-12-30T12:06:09.986Z,1024.40